Lexington Weather

Lexington, Massachusetts, USA

53°F
10/20/2019 7:52pm 
  • Lexington Conditions: Overcast
  • Temperature: 53.4°F / 11.9°CColder 1.3°F than last hour.
  • Dew Point: 48.0°F 
  • Relative Humidity: 82%Increased 4.0% since last hour.
  • Wind: Calm, 10-min avg: Calm, gust: None
  • Barometer: 30.01 in Steady
  • Visibility: 10 miles
  • Rain Today: 0.00 in
  •   

Nearby Reports - Official Weather Stations - Current Conditions

Data from the National Weather Service

KBED - Bedford, MA


Distance from station: WNW 4mi, 6km

Updated Sun Oct 20, 2019 6:51pm EDT

Overcast

Overcast

Wind from ESE

Wind:

ESE 3 mph, 6 km/h

Temperature: 57°F (14°C)

Dew Point: 45°F (7°C)

Humidity: 63%

Barometer: 30.04 in (1017.3 hPa)

Clouds: Overcast

Visibility: 10 miles (16 km)

Cloud details: Overcast 12000 ft


2019/10/20 22:51 KBED 202251Z 11003KT 10SM OVC120 14/07 A3004 RMK AO2 SLP186 T01390072

KBOS - Boston, MA


Distance from station: ESE 12mi, 20km

Updated Sun Oct 20, 2019 6:54pm EDT

Overcast

Overcast

Wind from E

Wind:

E 8 mph, 13 km/h

Temperature: 57°F (14°C)

Dew Point: 48°F (9°C)

Humidity: 72%

Barometer: 30.05 in (1017.6 hPa)

Clouds: Overcast

Visibility: 10 miles (16 km)

Cloud details: Mostly cloudy 14000 ft
Mostly cloudy 18000 ft
Overcast 22000 ft


2019/10/20 22:54 KBOS 202254Z 09007KT 10SM BKN140 BKN180 OVC220 14/09 A3005 RMK AO2 SLP176 T01390094

KMQE - East Milton, MA


Distance from station: SSE 17mi, 27km

Updated Fri Oct 18, 2019 1:56pm EDT (NOT Current)

Wind from NW

Wind:

NW 18 mph, 30 km/h,
Gust: 26 mph, 43 km/h

Temperature: 54°F (12°C)

Dew Point: 37°F (3°C)

Humidity: 54%

Barometer: 29.70 in (1005.8 hPa)


2019/10/18 17:56 KMQE 181756Z AUTO 31016G23KT 12/03 A2970 RMK AO1 PK WND 31026/1713 SLP069 T01220033 10122 20083 51006

KOWD - Norwood, MA


Distance from station: SSE 18mi, 29km

Updated Sun Oct 20, 2019 6:53pm EDT

Clear

Clear

Wind from calm

Wind:

Calm

Temperature: 54°F (12°C)

Dew Point: 46°F (8°C)

Humidity: 77%

Barometer: 30.05 in (1017.6 hPa)

Clouds: Clear

Visibility: 10 miles (16 km)


2019/10/20 22:53 KOWD 202253Z 00000KT 10SM CLR 12/08 A3005 RMK AO2 SLP174 T01220078

KBVY - Beverly, MA


Distance from station: ENE 19mi, 31km

Updated Sun Oct 20, 2019 6:53pm EDT

Clear

Clear

Wind from calm

Wind:

Calm

Temperature: 54°F (12°C)

Dew Point: 46°F (8°C)

Humidity: 77%

Barometer: 30.05 in (1017.6 hPa)

Clouds: Clear

Visibility: 10 miles (16 km)


2019/10/20 22:53 KBVY 202253Z 00000KT 10SM CLR 12/08 A3005 RMK AO2 SLP171 T01170083

KLWM - Lawrence, MA


Distance from station: NNE 20mi, 32km

Updated Sun Oct 20, 2019 6:54pm EDT

Clear

Clear

Wind from E

Wind:

E 5 mph, 7 km/h

Temperature: 54°F (12°C)

Dew Point: 46°F (8°C)

Humidity: 77%

Barometer: 30.07 in (1018.3 hPa)

Clouds: Clear

Visibility: 10 miles (16 km)


2019/10/20 22:54 KLWM 202254Z 09004KT 10SM CLR 12/08 A3007 RMK AO2 SLP182 T01170078

KFIT - Fitchburg, MA


Distance from station: WNW 27mi, 44km

Updated Sun Oct 20, 2019 6:52pm EDT

Light rain, Overcast

Light rain, Overcast

Wind from calm

Wind:

Calm

Temperature: 52°F (11°C)

Dew Point: 46°F (8°C)

Humidity: 82%

Barometer: 30.06 in (1017.9 hPa)

Summary: Light rain

Clouds: Overcast

Visibility: 5 miles (8 km)

Cloud details: Mostly cloudy 8000 ft
Overcast 9500 ft


2019/10/20 22:52 KFIT 202252Z AUTO 00000KT 5SM -RA BKN080 OVC095 11/08 A3006 RMK AO2 RAB21 SLP183 P0000 T01110078

KASH - Nashua/Boire Fld, NH


Distance from station: NNW 28mi, 44km

Updated Sun Oct 20, 2019 6:56pm EDT

Overcast

Overcast

Wind from calm

Wind:

Calm

Temperature: 54°F (12°C)

Dew Point: 46°F (8°C)

Humidity: 77%

Barometer: 30.06 in (1017.9 hPa)

Clouds: Overcast

Visibility: 10 miles (16 km)

Cloud details: Partly cloudy 7500 ft
Mostly cloudy 9000 ft
Overcast 11000 ft


2019/10/20 22:56 KASH 202256Z 00000KT 10SM SCT075 BKN090 OVC110 12/08 A3006 RMK AO2 SLP184 T01170083 PNO $

KORH - Worcester, MA


Distance from station: WSW 34mi, 55km

Updated Sun Oct 20, 2019 6:54pm EDT

Rain, Overcast

Rain, Overcast

Wind from calm

Wind:

Calm

Temperature: 52°F (11°C)

Dew Point: 45°F (7°C)

Humidity: 77%

Barometer: 30.05 in (1017.6 hPa)

Summary: Rain

Clouds: Overcast

Visibility: 7 miles (11 km)

Cloud details: Mostly cloudy 8000 ft
Overcast 9000 ft


2019/10/20 22:54 KORH 202254Z 00000KT 7SM RA BKN080 OVC090 11/07 A3005 RMK AO2 SLP181 P0002 T01110067 $

KMHT - Manchester, NH


Distance from station: NNW 35mi, 57km

Updated Sun Oct 20, 2019 6:53pm EDT

Overcast

Overcast

Wind from E

Wind:

E 3 mph, 6 km/h

Temperature: 55°F (13°C)

Dew Point: 45°F (7°C)

Humidity: 67%

Barometer: 30.04 in (1017.3 hPa)

Clouds: Overcast

Visibility: 10 miles (16 km)

Cloud details: Few Clouds 5000 ft
Overcast 12000 ft


2019/10/20 22:53 KMHT 202253Z 09003KT 10SM FEW050 OVC120 13/07 A3004 RMK AO2 SLP187 T01280067

KGHG - Marshfield, MA


Distance from station: SE 38mi, 60km

Updated Sun Oct 20, 2019 7:35pm EDT

Clear

Clear

Wind from SSE

Wind:

SSE 6 mph, 9 km/h

Temperature: 57°F (14°C)

Dew Point: 48°F (9°C)

Humidity: 72%

Barometer: 30.04 in (1017.3 hPa)

Clouds: Clear

Visibility: 10 miles (16 km)


2019/10/20 23:35 KGHG 202335Z AUTO 15005KT 10SM CLR 14/09 A3004 RMK AO2

KSFZ - Pawtucket, RI


Distance from station: SSW 39mi, 62km

Updated Sun Oct 20, 2019 6:56pm EDT

Overcast

Overcast

Wind from calm

Wind:

Calm

Barometer: 30.04 in (1017.3 hPa)

Clouds: Overcast

Visibility: 10 miles (16 km)

Cloud details: Overcast 11000 ft


2019/10/20 22:56 KSFZ 202256Z AUTO 00000KT 10SM OVC110 A3004 RMK AO2 SLPNO FZRANO $

KTAN - Taunton, MA


Distance from station: SSE 40mi, 65km

Updated Sun Oct 20, 2019 6:52pm EDT

Few Clouds

Few Clouds

Wind from calm

Wind:

Calm

Temperature: 54°F (12°C)

Dew Point: 48°F (9°C)

Humidity: 82%

Barometer: 30.04 in (1017.3 hPa)

Clouds: Few Clouds

Visibility: 10 miles (16 km)

Cloud details: Few Clouds 12000 ft


2019/10/20 22:52 KTAN 202252Z AUTO 00000KT 10SM FEW120 12/09 A3004 RMK AO2 SLP171 T01170094

KPYM - Plymouth, MA


Distance from station: SE 44mi, 72km

Updated Sun Oct 20, 2019 6:52pm EDT

Few Clouds

Few Clouds

Wind from SE

Wind:

SE 5 mph, 7 km/h

Temperature: 54°F (12°C)

Dew Point: 46°F (8°C)

Humidity: 77%

Barometer: 30.05 in (1017.6 hPa)

Clouds: Few Clouds

Visibility: 10 miles (16 km)

Cloud details: Few Clouds 12000 ft


2019/10/20 22:52 KPYM 202252Z AUTO 13004KT 10SM FEW120 12/08 A3005 RMK AO2 SLP175 T01220078

KAFN - Jaffrey, NH


Distance from station: WNW 46mi, 74km

Updated Sun Oct 20, 2019 6:52pm EDT

Light rain, Overcast

Light rain, Overcast

Wind from calm

Wind:

Calm

Temperature: 48°F (9°C)

Dew Point: 46°F (8°C)

Humidity: 94%

Barometer: 30.05 in (1017.6 hPa)

Summary: Light rain

Clouds: Overcast

Visibility: 10 miles (16 km)

Cloud details: Few Clouds 7000 ft
Overcast 8500 ft


2019/10/20 22:52 KAFN 202252Z AUTO 00000KT 10SM -RA FEW070 OVC085 09/08 A3005 RMK AO2 SLP189 P0001 T00940078

KPSM - Portsmouth/Pease, NH


Distance from station: NNE 48mi, 78km

Updated Sun Oct 20, 2019 6:56pm EDT

Overcast

Overcast

Wind from ENE

Wind:

ENE 5 mph, 7 km/h

Temperature: 52°F (11°C)

Dew Point: 48°F (9°C)

Humidity: 88%

Barometer: 30.05 in (1017.6 hPa)

Clouds: Overcast

Visibility: 10 miles (16 km)

Cloud details: Few Clouds 5000 ft
Mostly cloudy 16000 ft
Overcast 20000 ft


2019/10/20 22:56 KPSM 202256Z 06004KT 10SM FEW050 BKN160 OVC200 11/09 A3005 RMK AO2A SLP179 T01110085

KPVD - Providence/Green, RI


Distance from station: S 51mi, 82km

Updated Sun Oct 20, 2019 6:51pm EDT

Overcast

Overcast

Wind from calm

Wind:

Calm

Temperature: 55°F (13°C)

Dew Point: 50°F (10°C)

Humidity: 82%

Barometer: 30.04 in (1017.3 hPa)

Clouds: Overcast

Visibility: 10 miles (16 km)

Cloud details: Mostly cloudy 11000 ft
Overcast 13000 ft


2019/10/20 22:51 KPVD 202251Z 00000KT 10SM BKN110 OVC130 13/10 A3004 RMK AO2 SLP174 SHRA DSNT W T01330100

KCON - Concord, NH


Distance from station: NNW 54mi, 87km

Updated Sun Oct 20, 2019 6:51pm EDT

Partly cloudy

Partly cloudy

Wind from E

Wind:

E 3 mph, 6 km/h

Temperature: 52°F (11°C)

Dew Point: 43°F (6°C)

Humidity: 72%

Barometer: 30.05 in (1017.6 hPa)

Clouds: Partly cloudy

Visibility: 10 miles (16 km)

Cloud details: Few Clouds 6000 ft
Partly cloudy 9000 ft
Partly cloudy 11000 ft


2019/10/20 22:51 KCON 202251Z AUTO 08003KT 10SM FEW060 SCT090 SCT110 11/06 A3005 RMK AO2 SLP181 T01060061

KEWB - New Bedford, MA


Distance from station: SSE 54mi, 87km

Updated Sun Oct 20, 2019 6:53pm EDT

Few Clouds

Few Clouds

Wind from ESE

Wind:

ESE 7 mph, 11 km/h

Temperature: 55°F (13°C)

Dew Point: 46°F (8°C)

Humidity: 72%

Barometer: 30.04 in (1017.3 hPa)

Clouds: Few Clouds

Visibility: 10 miles (16 km)

Cloud details: Few Clouds 11000 ft


2019/10/20 22:53 KEWB 202253Z 11006KT 10SM FEW110 13/08 A3004 RMK AO2 SLP170 T01330083

KMWN - Mount Washington, NH


Distance from station: N 126mi, 203km

Updated Sun Oct 20, 2019 6:59pm EDT

Light freezing rain, Overcast

Light freezing rain, Overcast

Wind from W

Wind:

W 28 mph, 44 km/h

Temperature: 36°F (2°C)

Wind Chill: 23°F (-5°C)

Dew Point: 27°F (-3°C)

Humidity: 70%

Summary: Light Freezing Rain

Clouds: Overcast

Visibility: 20 miles (32 km)

Cloud details: Overcast 2500 ft


2019/10/20 22:59 KMWN 202259Z 27024KT 20SM -FZRA OVC025 02/M03 RMK FZRAB30 VRY LGT GICG